Time;durP1;ratioP1;P1;durP2;ratioP2;P2;SDS_P1;SDS_P2;PMS_P1;PMS_P2;Temp;Humidity;BMP_temperature;BMP_pressure;BME280_temperature;BME280_humidity;BME280_pressure;Samples;Min_cycle;Max_cycle;Signal;HPM_P1;HPM_P2
2021/03/01 00:00:37;;;;;;;12.00;10.60;;;5.90;66.20;;;;;;4997136;28;20198;-89
2021/03/01 00:03:03;;;;;;;15.27;11.60;;;5.80;66.90;;;;;;4997039;28;20661;-89
2021/03/01 00:05:29;;;;;;;14.70;11.03;;;5.70;66.90;;;;;;4997274;28;20185;-89
2021/03/01 00:07:55;;;;;;;12.87;10.50;;;5.70;68.20;;;;;;4998584;28;20178;-89
2021/03/01 00:10:21;;;;;;;13.10;11.33;;;5.60;67.70;;;;;;4979882;28;20302;-88
2021/03/01 00:12:47;;;;;;;12.00;10.50;;;5.70;67.70;;;;;;4999101;28;20645;-88
2021/03/01 00:15:15;;;;;;;14.10;11.47;;;5.60;67.20;;;;;;5001197;28;20197;-89
2021/03/01 00:17:42;;;;;;;13.87;10.93;;;5.50;67.70;;;;;;5016053;28;20263;-89
2021/03/01 00:20:10;;;;;;;13.47;10.90;;;5.50;68.00;;;;;;5001109;28;20232;-89
2021/03/01 00:22:36;;;;;;;15.20;10.90;;;5.50;67.70;;;;;;5001051;28;20182;-89
2021/03/01 00:25:04;;;;;;;14.50;11.10;;;5.50;68.20;;;;;;5000280;28;20194;-89
2021/03/01 00:27:29;;;;;;;12.87;11.37;;;5.50;68.10;;;;;;5001105;28;20186;-88
2021/03/01 00:29:55;;;;;;;13.07;10.00;;;5.40;68.10;;;;;;4999197;28;20280;-88
2021/03/01 00:32:21;;;;;;;14.10;10.67;;;5.40;69.10;;;;;;5000565;28;20491;-89
2021/03/01 00:34:46;;;;;;;13.10;10.70;;;5.40;68.70;;;;;;5000481;28;20186;-89
2021/03/01 00:37:12;;;;;;;12.40;10.33;;;5.40;68.90;;;;;;5000486;28;20190;-89
2021/03/01 00:39:38;;;;;;;14.87;11.23;;;5.50;68.50;;;;;;5000821;28;20210;-89
2021/03/01 00:42:04;;;;;;;12.87;10.33;;;5.50;68.40;;;;;;5000801;28;20205;-88
2021/03/01 00:44:31;;;;;;;15.43;10.80;;;5.50;68.40;;;;;;4999928;28;20238;-88
2021/03/01 00:46:56;;;;;;;13.20;10.80;;;5.50;68.50;;;;;;5000702;28;20178;-89
2021/03/01 00:49:22;;;;;;;12.80;10.37;;;5.50;68.20;;;;;;4998550;28;20320;-88
2021/03/01 00:51:47;;;;;;;13.53;11.67;;;5.50;68.80;;;;;;5000224;28;20186;-88
2021/03/01 00:54:13;;;;;;;14.03;11.23;;;5.60;68.30;;;;;;4999890;28;20650;-89
2021/03/01 00:56:39;;;;;;;14.37;10.80;;;5.60;67.70;;;;;;5000688;28;20190;-89
2021/03/01 00:59:04;;;;;;;14.70;10.63;;;5.60;67.50;;;;;;5000682;28;20222;-89
2021/03/01 01:01:30;;;;;;;13.23;10.93;;;5.60;67.90;;;;;;5000261;28;20217;-89
2021/03/01 01:03:56;;;;;;;13.13;11.07;;;5.60;68.90;;;;;;4998722;28;20191;-88
2021/03/01 01:06:21;;;;;;;13.23;10.63;;;5.50;67.50;;;;;;5000232;28;20186;-88
2021/03/01 01:08:47;;;;;;;14.77;11.10;;;5.50;68.00;;;;;;5001207;28;20226;-88
2021/03/01 01:11:13;;;;;;;13.80;11.57;;;5.40;67.90;;;;;;5000471;28;20182;-89
2021/03/01 01:13:38;;;;;;;13.20;10.40;;;5.30;68.30;;;;;;4999715;28;20653;-89
2021/03/01 01:16:04;;;;;;;13.97;11.17;;;5.10;69.30;;;;;;4998725;28;20277;-88
2021/03/01 01:18:29;;;;;;;14.10;11.67;;;5.10;70.00;;;;;;4999533;28;20217;-90
2021/03/01 01:20:55;;;;;;;14.70;11.30;;;5.00;70.20;;;;;;5002224;28;20194;-88
2021/03/01 01:23:21;;;;;;;14.17;11.60;;;5.00;70.40;;;;;;4999854;28;20190;-89
2021/03/01 01:25:46;;;;;;;15.13;11.97;;;5.10;69.60;;;;;;4999715;28;20716;-88
2021/03/01 01:28:12;;;;;;;14.57;10.80;;;5.10;70.20;;;;;;5000192;28;20190;-88
2021/03/01 01:30:38;;;;;;;13.10;10.50;;;5.00;70.00;;;;;;4999983;28;20309;-88
2021/03/01 01:33:04;;;;;;;14.10;12.20;;;5.10;70.00;;;;;;4997795;28;20237;-88
2021/03/01 01:35:29;;;;;;;14.07;11.20;;;5.00;70.00;;;;;;5000152;28;20209;-89
2021/03/01 01:37:55;;;;;;;13.57;10.73;;;5.00;70.30;;;;;;4999469;28;20178;-89
2021/03/01 01:40:22;;;;;;;13.47;10.20;;;4.90;70.40;;;;;;4999554;28;20566;-88
2021/03/01 01:42:49;;;;;;;17.17;10.70;;;5.00;70.00;;;;;;4998108;28;20186;-88
2021/03/01 01:45:19;;;;;;;14.60;10.93;;;4.90;71.10;;;;;;4999306;28;20182;-89
2021/03/01 01:47:45;;;;;;;14.47;11.13;;;4.90;70.60;;;;;;4999049;28;20183;-88
2021/03/01 01:50:12;;;;;;;13.23;10.57;;;4.90;70.60;;;;;;5006175;28;20215;-89
2021/03/01 01:52:38;;;;;;;16.20;12.00;;;4.80;70.90;;;;;;4985172;28;20182;-89
2021/03/01 01:55:07;;;;;;;14.47;11.27;;;4.70;71.00;;;;;;4999443;28;20730;-89
2021/03/01 01:57:34;;;;;;;15.70;11.70;;;4.60;71.80;;;;;;4999377;28;20186;-89
2021/03/01 02:00:00;;;;;;;14.07;10.30;;;4.70;71.60;;;;;;4999198;28;20245;-89
2021/03/01 02:02:26;;;;;;;13.57;10.63;;;4.70;71.50;;;;;;4999084;28;20190;-88
2021/03/01 02:05:01;;;;;;;14.33;10.70;;;4.60;71.80;;;;;;4999180;28;20505;-89
2021/03/01 02:07:50;;;;;;;17.07;10.67;;;4.60;72.50;;;;;;4999181;28;20186;-88
2021/03/01 02:10:31;;;;;;;15.17;11.70;;;4.70;72.30;;;;;;4999068;28;20273;-89
2021/03/01 02:13:09;;;;;;;16.50;11.60;;;4.70;71.60;;;;;;4999509;28;20174;-88
2021/03/01 02:15:57;;;;;;;14.63;10.70;;;4.70;71.50;;;;;;4999512;28;20293;-89
2021/03/01 02:18:23;;;;;;;14.57;11.33;;;4.80;71.90;;;;;;4998968;28;20166;-88
2021/03/01 02:20:49;;;;;;;14.83;10.10;;;4.80;71.60;;;;;;4997331;28;20574;-88
2021/03/01 02:23:16;;;;;;;13.00;10.10;;;4.90;71.50;;;;;;4998292;28;20178;-88
2021/03/01 02:25:59;;;;;;;13.40;10.63;;;5.00;70.70;;;;;;4998822;28;20186;-88
2021/03/01 02:28:29;;;;;;;13.00;10.47;;;5.00;70.50;;;;;;4997654;28;20220;-89
2021/03/01 02:30:57;;;;;;;12.60;11.00;;;5.00;70.30;;;;;;4998918;28;20360;-88
2021/03/01 02:33:30;;;;;;;14.33;11.00;;;5.00;69.80;;;;;;4998252;28;20719;-88
2021/03/01 02:36:05;;;;;;;14.83;10.77;;;5.00;70.10;;;;;;4997492;28;20187;-88
2021/03/01 02:38:33;;;;;;;14.87;10.73;;;5.00;71.10;;;;;;4997347;28;20575;-88
2021/03/01 02:41:00;;;;;;;14.27;10.47;;;5.00;70.80;;;;;;4998517;28;20712;-90
2021/03/01 02:43:27;;;;;;;11.27;9.37;;;5.10;70.50;;;;;;4998359;28;20189;-89
2021/03/01 02:45:54;;;;;;;12.87;10.77;;;5.00;70.40;;;;;;4999993;28;20269;-89
2021/03/01 02:48:20;;;;;;;12.13;10.30;;;5.00;70.00;;;;;;4998526;28;20728;-88
2021/03/01 02:50:48;;;;;;;13.60;11.27;;;5.10;70.70;;;;;;4996963;28;20308;-90
2021/03/01 02:53:15;;;;;;;13.80;10.80;;;5.10;69.40;;;;;;4998200;28;20581;-89
2021/03/01 02:55:46;;;;;;;13.10;10.13;;;5.10;69.70;;;;;;4998781;28;20194;-89
2021/03/01 02:58:14;;;;;;;14.17;11.73;;;5.10;70.00;;;;;;5000531;28;20250;-89
2021/03/01 03:00:40;;;;;;;13.77;10.73;;;5.10;70.10;;;;;;4998824;28;20178;-90
2021/03/01 03:03:09;;;;;;;13.97;11.27;;;5.10;69.70;;;;;;4997946;28;20252;-88
2021/03/01 03:05:35;;;;;;;13.23;11.30;;;5.10;69.30;;;;;;4997899;28;20179;-88
2021/03/01 03:08:02;;;;;;;12.37;10.40;;;5.00;70.50;;;;;;4998670;28;20178;-88
2021/03/01 03:10:29;;;;;;;13.17;11.03;;;5.00;70.20;;;;;;4998032;28;20214;-88
2021/03/01 03:12:56;;;;;;;15.33;11.53;;;4.90;69.90;;;;;;4997694;28;20237;-89
2021/03/01 03:15:25;;;;;;;16.07;11.97;;;4.80;69.80;;;;;;4997731;28;20185;-89
2021/03/01 03:17:52;;;;;;;12.43;9.97;;;4.80;70.30;;;;;;4998210;28;20560;-88
2021/03/01 03:20:18;;;;;;;14.87;11.43;;;4.80;70.70;;;;;;4998081;28;20641;-89
2021/03/01 03:22:44;;;;;;;12.13;10.20;;;4.80;70.40;;;;;;4998878;28;20190;-88
2021/03/01 03:25:11;;;;;;;15.50;12.00;;;4.80;70.50;;;;;;4997193;28;20297;-88
2021/03/01 03:27:37;;;;;;;15.80;12.40;;;4.70;71.00;;;;;;4997102;28;20201;-89
2021/03/01 03:30:08;;;;;;;13.40;11.20;;;4.70;70.30;;;;;;4997615;28;20217;-89
2021/03/01 03:32:34;;;;;;;12.43;10.43;;;4.60;70.40;;;;;;4996405;28;20689;-88
2021/03/01 03:35:00;;;;;;;13.27;10.60;;;4.50;72.00;;;;;;4997355;28;20241;-89
2021/03/01 03:37:33;;;;;;;14.50;11.43;;;4.60;71.80;;;;;;4998048;28;20178;-88
2021/03/01 03:40:01;;;;;;;16.13;11.23;;;4.50;70.90;;;;;;4997619;28;20194;-89
2021/03/01 03:42:29;;;;;;;14.13;10.63;;;4.30;71.80;;;;;;4996343;28;20187;-89
2021/03/01 03:44:56;;;;;;;15.90;11.47;;;4.30;72.10;;;;;;4997202;28;20245;-89
2021/03/01 03:47:23;;;;;;;15.93;10.93;;;4.20;71.80;;;;;;4997583;28;20186;-89
2021/03/01 03:49:54;;;;;;;14.07;10.97;;;4.20;72.70;;;;;;4995674;28;20244;-89
2021/03/01 03:52:24;;;;;;;12.83;9.60;;;4.20;72.30;;;;;;4997667;28;20246;-89
2021/03/01 03:54:51;;;;;;;12.70;10.47;;;4.30;73.00;;;;;;4997563;28;20179;-88
2021/03/01 03:57:22;;;;;;;13.07;10.40;;;4.20;72.70;;;;;;4997812;28;20179;-88
2021/03/01 03:59:50;;;;;;;15.33;11.87;;;4.20;72.30;;;;;;4996418;28;20788;-88
2021/03/01 04:02:18;;;;;;;14.63;10.97;;;4.20;72.30;;;;;;4997802;28;20267;-88
2021/03/01 04:04:44;;;;;;;14.97;11.20;;;4.20;72.60;;;;;;4997319;28;20644;-88
2021/03/01 04:07:11;;;;;;;14.43;10.93;;;4.20;72.30;;;;;;4997162;28;20190;-89
2021/03/01 04:09:41;;;;;;;15.43;11.13;;;4.20;72.60;;;;;;4997490;28;20214;-88
2021/03/01 04:12:09;;;;;;;15.50;11.50;;;4.10;72.50;;;;;;4997098;28;20230;-90
2021/03/01 04:14:37;;;;;;;15.23;11.93;;;4.10;72.90;;;;;;4997238;28;20673;-89
2021/03/01 04:17:07;;;;;;;14.80;11.53;;;3.90;72.70;;;;;;4997310;28;20170;-89
2021/03/01 04:19:34;;;;;;;14.23;10.30;;;3.90;73.10;;;;;;4980713;28;20210;-88
2021/03/01 04:22:01;;;;;;;16.27;10.90;;;3.80;73.40;;;;;;4996560;28;20210;-89
2021/03/01 04:24:29;;;;;;;15.37;11.83;;;3.70;74.40;;;;;;4997325;28;20186;-88
2021/03/01 04:26:55;;;;;;;15.43;11.13;;;3.70;74.50;;;;;;4997729;28;20189;-88
2021/03/01 04:29:21;;;;;;;15.07;10.57;;;3.60;74.50;;;;;;4997420;28;20246;-89
2021/03/01 04:31:49;;;;;;;17.23;10.67;;;3.60;74.60;;;;;;4997712;28;20186;-89
2021/03/01 04:34:19;;;;;;;13.60;10.40;;;3.60;74.40;;;;;;4996930;28;20206;-88
2021/03/01 04:36:45;;;;;;;15.83;11.30;;;3.60;74.50;;;;;;4998190;28;20191;-88
2021/03/01 04:39:11;;;;;;;12.50;10.83;;;3.50;74.50;;;;;;4998765;28;20202;-88
2021/03/01 04:41:40;;;;;;;13.53;11.07;;;3.50;74.70;;;;;;4996974;28;20186;-89
2021/03/01 04:44:09;;;;;;;12.97;10.53;;;3.50;74.70;;;;;;4998020;28;20642;-88
2021/03/01 04:46:37;;;;;;;15.47;11.47;;;3.60;74.90;;;;;;4998244;28;20202;-88
2021/03/01 04:49:16;;;;;;;12.90;10.17;;;3.50;74.70;;;;;;4998847;28;20725;-89
2021/03/01 04:51:42;;;;;;;13.17;10.20;;;3.50;74.90;;;;;;4999677;28;20170;-88
2021/03/01 04:54:09;;;;;;;14.97;11.37;;;3.60;74.70;;;;;;4998854;28;20186;-89
2021/03/01 04:56:42;;;;;;;13.43;10.50;;;3.50;74.40;;;;;;4997867;28;20171;-89
2021/03/01 04:59:08;;;;;;;14.53;10.57;;;3.50;75.40;;;;;;4999307;28;20226;-89
2021/03/01 05:01:35;;;;;;;13.27;11.80;;;3.50;74.90;;;;;;5002694;28;20206;-89
2021/03/01 05:04:01;;;;;;;13.23;9.80;;;3.50;74.80;;;;;;5002802;28;20190;-89
2021/03/01 05:06:27;;;;;;;14.33;10.47;;;3.50;74.80;;;;;;5002914;28;20669;-89
2021/03/01 05:08:53;;;;;;;15.40;11.33;;;3.60;75.10;;;;;;5001314;28;20222;-89
2021/03/01 05:11:39;;;;;;;13.00;10.10;;;3.70;74.60;;;;;;5003070;28;20178;-89
2021/03/01 05:14:06;;;;;;;15.27;10.87;;;3.70;73.80;;;;;;5003452;28;20273;-89
2021/03/01 05:16:32;;;;;;;14.50;10.67;;;3.80;74.00;;;;;;5003525;28;20182;-89
2021/03/01 05:18:58;;;;;;;14.57;11.40;;;3.80;72.90;;;;;;5003764;28;20221;-89
2021/03/01 05:21:25;;;;;;;15.60;12.30;;;3.70;73.30;;;;;;5003662;28;20175;-89
2021/03/01 05:23:51;;;;;;;14.97;12.07;;;3.70;73.10;;;;;;5003857;28;20612;-89
2021/03/01 05:26:18;;;;;;;12.33;10.87;;;3.50;73.60;;;;;;5004539;28;20186;-90
2021/03/01 05:28:44;;;;;;;18.50;13.50;;;3.40;74.20;;;;;;5004340;28;20246;-88
2021/03/01 05:31:10;;;;;;;17.63;14.23;;;3.30;74.60;;;;;;5003404;28;20185;-89
2021/03/01 05:33:36;;;;;;;17.97;14.77;;;3.20;75.00;;;;;;5003032;28;20186;-89
2021/03/01 05:36:02;;;;;;;15.67;12.03;;;3.20;75.20;;;;;;5006448;28;20193;-89
2021/03/01 05:38:28;;;;;;;17.77;12.63;;;3.30;75.00;;;;;;5003648;28;20186;-89
2021/03/01 05:40:54;;;;;;;15.47;11.53;;;3.30;75.10;;;;;;5002706;28;20193;-89
2021/03/01 05:43:25;;;;;;;20.27;13.20;;;3.30;75.70;;;;;;5000418;28;20201;-89
2021/03/01 05:45:52;;;;;;;19.37;12.43;;;3.40;75.60;;;;;;5001173;28;20209;-90
2021/03/01 05:48:21;;;;;;;19.13;13.27;;;3.50;74.80;;;;;;5001399;28;20205;-89
2021/03/01 05:50:56;;;;;;;15.67;12.07;;;3.50;73.80;;;;;;5001745;28;20186;-89
2021/03/01 05:53:28;;;;;;;20.57;14.07;;;3.40;74.80;;;;;;5001374;28;20177;-89
2021/03/01 05:55:54;;;;;;;16.20;12.10;;;3.40;73.40;;;;;;5001484;28;20245;-89
2021/03/01 05:58:21;;;;;;;19.17;12.43;;;3.40;74.70;;;;;;5000826;28;20599;-88
2021/03/01 06:00:47;;;;;;;17.37;12.43;;;3.50;74.60;;;;;;4999768;28;20676;-88
2021/03/01 06:03:16;;;;;;;15.17;12.20;;;3.40;74.50;;;;;;5000183;28;20178;-88
2021/03/01 06:05:43;;;;;;;15.67;10.97;;;3.40;74.00;;;;;;5000865;28;20199;-89
2021/03/01 06:08:10;;;;;;;15.00;11.33;;;3.40;74.90;;;;;;5001741;28;20183;-89
2021/03/01 06:10:36;;;;;;;15.00;11.33;;;3.30;74.20;;;;;;5001548;28;20202;-89
2021/03/01 06:13:02;;;;;;;15.00;11.23;;;3.20;75.10;;;;;;5001356;28;20178;-89
2021/03/01 06:15:29;;;;;;;15.50;11.10;;;3.30;75.40;;;;;;4999535;28;20201;-90
2021/03/01 06:18:06;;;;;;;17.03;11.63;;;3.30;75.00;;;;;;5000016;28;20182;-89
2021/03/01 06:20:33;;;;;;;17.87;12.20;;;3.30;74.80;;;;;;4998091;28;20221;-89
2021/03/01 06:22:58;;;;;;;13.40;10.73;;;3.30;74.40;;;;;;4984335;28;20266;-90
2021/03/01 06:25:24;;;;;;;16.40;11.83;;;3.10;74.10;;;;;;5002430;28;20194;-91
2021/03/01 06:27:54;;;;;;;17.10;12.83;;;2.70;75.60;;;;;;5001942;28;20237;-90
2021/03/01 06:30:29;;;;;;;18.80;13.37;;;2.50;76.60;;;;;;5000908;28;20321;-89
2021/03/01 06:33:08;;;;;;;18.23;12.83;;;2.40;77.50;;;;;;5000823;28;20201;-89
2021/03/01 06:35:55;;;;;;;17.27;12.40;;;2.30;78.60;;;;;;5000528;28;20163;-88
2021/03/01 06:38:26;;;;;;;18.13;12.90;;;2.30;79.10;;;;;;5002027;28;20208;-89
2021/03/01 06:41:10;;;;;;;16.10;12.57;;;2.40;79.30;;;;;;4997980;28;20190;-89
2021/03/01 06:43:36;;;;;;;17.10;11.73;;;2.40;79.00;;;;;;4998411;28;20193;-89
2021/03/01 06:46:13;;;;;;;16.93;11.73;;;2.50;78.70;;;;;;4997971;28;20186;-88
2021/03/01 06:48:40;;;;;;;16.80;12.00;;;2.60;78.20;;;;;;4997468;28;20214;-88
2021/03/01 06:51:07;;;;;;;15.03;11.73;;;2.70;78.60;;;;;;4999658;28;20210;-89
2021/03/01 06:53:35;;;;;;;21.23;11.67;;;2.70;78.10;;;;;;4999260;28;20175;-88
2021/03/01 06:56:11;;;;;;;15.73;11.60;;;2.70;78.40;;;;;;4997226;28;20201;-88
2021/03/01 06:58:43;;;;;;;15.67;11.27;;;2.80;78.10;;;;;;4999589;28;20285;-90
2021/03/01 07:01:18;;;;;;;15.63;11.90;;;2.80;78.10;;;;;;4991630;28;20277;-89
2021/03/01 07:03:46;;;;;;;14.70;11.60;;;2.90;77.70;;;;;;4999473;28;20174;-89
2021/03/01 07:06:12;;;;;;;17.50;11.60;;;2.90;77.60;;;;;;5004289;28;20184;-90
2021/03/01 07:08:48;;;;;;;17.67;11.63;;;2.90;77.70;;;;;;4999536;28;20651;-91
2021/03/01 07:11:26;;;;;;;17.00;11.00;;;2.90;77.70;;;;;;5003562;28;20541;-87
2021/03/01 07:13:54;;;;;;;14.97;11.17;;;2.90;77.20;;;;;;4998530;28;20240;-89
2021/03/01 07:16:20;;;;;;;17.03;12.07;;;3.00;76.80;;;;;;4999392;28;20178;-89
2021/03/01 07:18:46;;;;;;;15.63;12.00;;;3.00;76.50;;;;;;4997153;28;20213;-88
2021/03/01 07:21:14;;;;;;;18.33;11.83;;;3.00;76.80;;;;;;4996608;28;20206;-88
2021/03/01 07:23:56;;;;;;;17.77;12.97;;;3.10;76.60;;;;;;4998996;28;20250;-88
2021/03/01 07:26:25;;;;;;;18.37;11.27;;;3.00;76.70;;;;;;4998745;28;20182;-88
2021/03/01 07:28:52;;;;;;;14.90;11.43;;;3.10;76.40;;;;;;4998426;28;20214;-89
2021/03/01 07:31:22;;;;;;;16.23;11.60;;;3.10;76.40;;;;;;4999540;28;20186;-88
2021/03/01 07:33:54;;;;;;;14.60;11.43;;;3.20;76.20;;;;;;4999439;28;20197;-89
2021/03/01 07:36:20;;;;;;;24.33;11.87;;;3.20;75.70;;;;;;5000207;28;20265;-91
2021/03/01 07:38:46;;;;;;;15.83;12.30;;;3.30;75.50;;;;;;4998988;28;20247;-88
2021/03/01 07:41:11;;;;;;;15.47;11.03;;;3.40;75.20;;;;;;4998959;28;20183;-89
2021/03/01 07:43:42;;;;;;;17.83;10.90;;;3.50;75.10;;;;;;4997566;28;20189;-89
2021/03/01 07:46:08;;;;;;;14.03;10.80;;;3.50;74.60;;;;;;4998947;28;20184;-89
2021/03/01 07:48:37;;;;;;;13.97;11.40;;;3.70;74.30;;;;;;4998665;28;20221;-89
2021/03/01 07:51:03;;;;;;;14.33;11.37;;;3.80;73.50;;;;;;4999343;28;20178;-88
2021/03/01 07:53:50;;;;;;;15.20;11.33;;;3.80;73.00;;;;;;4997609;28;20717;-88
2021/03/01 07:56:24;;;;;;;13.67;10.00;;;3.90;73.40;;;;;;4996436;28;20545;-85
2021/03/01 07:58:57;;;;;;;16.83;11.23;;;4.00;72.60;;;;;;5001489;28;20248;-85
2021/03/01 08:01:23;;;;;;;16.93;12.97;;;4.00;72.70;;;;;;4997681;28;20536;-86
2021/03/01 08:03:50;;;;;;;14.53;11.83;;;4.00;71.90;;;;;;4981652;28;20547;-85
2021/03/01 08:06:16;;;;;;;21.60;15.13;;;4.10;72.50;;;;;;4989214;28;20186;-86
2021/03/01 08:08:49;;;;;;;30.73;23.17;;;4.20;71.90;;;;;;4996096;28;20243;-88
2021/03/01 08:11:42;;;;;;;13.60;12.10;;;4.30;71.80;;;;;;4995757;28;20175;-89
2021/03/01 08:14:48;;;;;;;16.97;11.57;;;4.30;71.00;;;;;;4997686;28;20206;-88
2021/03/01 08:17:26;;;;;;;13.67;11.30;;;4.40;71.20;;;;;;4997479;28;20685;-89
2021/03/01 08:19:53;;;;;;;13.53;11.20;;;4.50;70.80;;;;;;4995522;28;20216;-88
2021/03/01 08:22:18;;;;;;;13.23;10.80;;;4.50;70.30;;;;;;4998309;28;20553;-89
2021/03/01 08:24:45;;;;;;;15.97;11.63;;;4.60;69.70;;;;;;5000138;28;20258;-87
2021/03/01 08:27:26;;;;;;;14.33;11.07;;;4.60;69.00;;;;;;4997880;28;20608;-91
2021/03/01 08:30:19;;;;;;;14.47;10.67;;;4.60;68.90;;;;;;4998599;28;20206;-90
2021/03/01 08:33:08;;;;;;;13.23;11.63;;;4.80;68.60;;;;;;4999402;28;20265;-88
2021/03/01 08:35:37;;;;;;;15.57;10.73;;;4.80;68.00;;;;;;4999815;28;20178;-89
2021/03/01 08:38:03;;;;;;;15.20;10.97;;;4.90;67.50;;;;;;4999082;28;20229;-88
2021/03/01 08:40:30;;;;;;;15.60;11.00;;;4.90;67.50;;;;;;4999249;28;20233;-89
2021/03/01 08:43:02;;;;;;;15.77;11.53;;;5.10;67.60;;;;;;5001938;28;20178;-89
2021/03/01 08:45:32;;;;;;;13.27;10.13;;;5.10;66.80;;;;;;5002285;28;20182;-89
2021/03/01 08:48:00;;;;;;;14.57;10.20;;;5.20;66.50;;;;;;5000600;28;20254;-90
2021/03/01 08:50:30;;;;;;;13.83;9.97;;;5.40;65.90;;;;;;5001103;28;20669;-89
2021/03/01 08:52:56;;;;;;;13.90;10.93;;;5.40;65.20;;;;;;5001488;28;20217;-89
2021/03/01 08:55:23;;;;;;;14.33;11.20;;;5.40;65.40;;;;;;5000777;28;20661;-88
2021/03/01 08:58:03;;;;;;;15.83;10.37;;;5.60;65.10;;;;;;5001947;28;20668;-89
2021/03/01 09:00:31;;;;;;;13.27;10.53;;;5.70;64.50;;;;;;5001660;28;20216;-87
2021/03/01 09:03:36;;;;;;;15.70;10.90;;;5.80;64.00;;;;;;5000056;28;20720;-89
2021/03/01 09:06:10;;;;;;;13.43;10.67;;;6.00;63.10;;;;;;4970356;28;20194;-89
2021/03/01 09:08:45;;;;;;;12.03;9.53;;;6.10;63.30;;;;;;4979734;28;20248;-89
2021/03/01 09:11:13;;;;;;;13.30;10.73;;;6.20;62.30;;;;;;4991500;28;20256;-89
2021/03/01 09:13:40;;;;;;;15.00;10.13;;;6.30;62.20;;;;;;5000317;28;20237;-89
2021/03/01 09:16:09;;;;;;;12.53;10.17;;;6.40;62.00;;;;;;4999769;28;20662;-88
2021/03/01 09:18:37;;;;;;;11.53;9.90;;;6.50;62.40;;;;;;5002823;28;20174;-88
2021/03/01 09:21:04;;;;;;;12.30;10.20;;;6.60;61.50;;;;;;5002982;28;20206;-89
2021/03/01 09:23:37;;;;;;;12.67;10.30;;;6.80;60.70;;;;;;4999711;28;20190;-88
2021/03/01 09:26:05;;;;;;;11.57;9.90;;;7.00;60.70;;;;;;4999130;28;20653;-88
2021/03/01 09:28:33;;;;;;;12.67;9.83;;;7.10;59.40;;;;;;4998308;28;20214;-88
2021/03/01 09:31:01;;;;;;;11.80;9.97;;;7.30;59.50;;;;;;4997143;28;20179;-89
2021/03/01 09:33:30;;;;;;;13.00;10.20;;;7.30;59.00;;;;;;4996751;28;20190;-89
2021/03/01 09:35:56;;;;;;;13.37;10.30;;;7.40;58.10;;;;;;4996972;28;20557;-89
2021/03/01 09:38:22;;;;;;;12.20;10.13;;;7.60;58.10;;;;;;4994465;28;20648;-89
2021/03/01 09:41:08;;;;;;;15.13;9.77;;;7.60;57.50;;;;;;4996979;28;20197;-89
2021/03/01 09:43:35;;;;;;;11.23;10.03;;;7.70;57.30;;;;;;4999000;28;20174;-90
2021/03/01 09:46:03;;;;;;;13.67;10.27;;;7.90;57.20;;;;;;5004596;28;20183;-88
2021/03/01 09:48:42;;;;;;;11.73;9.80;;;8.00;57.10;;;;;;5002624;28;20254;-88
2021/03/01 09:51:11;;;;;;;12.00;9.83;;;8.20;56.90;;;;;;5008751;28;20187;-88
2021/03/01 09:53:37;;;;;;;10.87;8.40;;;8.40;55.50;;;;;;5003432;28;20178;-88
2021/03/01 09:56:05;;;;;;;11.80;9.77;;;8.50;55.60;;;;;;5003946;28;20175;-89
2021/03/01 09:58:39;;;;;;;12.17;10.03;;;8.60;55.00;;;;;;5003422;28;20197;-88
2021/03/01 10:01:16;;;;;;;11.50;10.27;;;8.80;54.10;;;;;;5001551;28;20174;-90
2021/03/01 10:03:47;;;;;;;15.33;11.43;;;9.00;54.00;;;;;;5003319;28;20182;-88
2021/03/01 10:06:35;;;;;;;13.23;10.10;;;9.10;54.00;;;;;;5002809;28;20178;-88
2021/03/01 10:09:05;;;;;;;13.03;10.20;;;9.20;54.10;;;;;;5001856;28;20241;-88
2021/03/01 10:11:31;;;;;;;13.10;10.03;;;9.50;52.30;;;;;;5001836;28;20186;-87
2021/03/01 10:14:10;;;;;;;10.77;9.67;;;9.60;51.80;;;;;;5000174;28;20198;-89
2021/03/01 10:16:38;;;;;;;13.33;9.67;;;9.70;51.30;;;;;;4997669;28;20189;-88
2021/03/01 10:19:15;;;;;;;10.93;9.30;;;9.80;50.80;;;;;;4998834;28;20218;-87
2021/03/01 10:21:41;;;;;;;11.70;10.30;;;10.10;50.20;;;;;;5000389;28;20185;-88
2021/03/01 10:24:09;;;;;;;11.30;9.90;;;10.20;49.70;;;;;;5000719;28;20265;-89
2021/03/01 10:26:50;;;;;;;11.43;9.83;;;10.30;49.50;;;;;;4999725;28;20190;-88
2021/03/01 10:29:16;;;;;;;13.53;10.13;;;10.40;49.40;;;;;;5000692;28;20210;-89
2021/03/01 10:31:42;;;;;;;13.43;10.80;;;10.70;48.60;;;;;;5002074;28;20185;-88
2021/03/01 10:34:13;;;;;;;12.90;9.87;;;10.70;48.80;;;;;;5000775;28;20669;-87
2021/03/01 10:36:48;;;;;;;10.73;9.20;;;10.80;47.80;;;;;;4990788;28;20732;-88
2021/03/01 10:39:16;;;;;;;10.00;9.10;;;10.80;47.10;;;;;;4998535;28;20764;-88
2021/03/01 10:41:46;;;;;;;13.90;9.77;;;10.90;46.90;;;;;;5000110;28;20720;-90
2021/03/01 10:44:13;;;;;;;11.43;10.23;;;11.10;46.60;;;;;;5000496;28;20261;-88
2021/03/01 10:46:44;;;;;;;11.33;9.43;;;11.20;46.90;;;;;;4999667;28;20194;-88
2021/03/01 10:49:24;;;;;;;12.33;10.50;;;11.20;46.30;;;;;;4999745;28;20926;-88
2021/03/01 10:51:51;;;;;;;10.90;9.77;;;11.40;45.90;;;;;;5000367;28;20542;-88
2021/03/01 10:54:18;;;;;;;10.93;9.80;;;11.50;45.40;;;;;;4999812;28;20214;-91
2021/03/01 10:56:44;;;;;;;10.93;9.60;;;11.70;44.70;;;;;;5000956;28;20273;-90
2021/03/01 10:59:10;;;;;;;11.33;10.10;;;11.90;44.70;;;;;;4998737;28;20237;-88
2021/03/01 11:01:47;;;;;;;10.43;9.33;;;11.90;44.60;;;;;;4999409;28;20273;-88
2021/03/01 11:04:14;;;;;;;11.57;9.23;;;12.20;43.80;;;;;;4982030;28;20755;-89
2021/03/01 11:06:40;;;;;;;9.73;8.73;;;12.20;43.60;;;;;;4997613;28;20193;-88
2021/03/01 11:09:09;;;;;;;12.30;10.10;;;12.30;42.60;;;;;;4998164;28;20218;-87
2021/03/01 11:11:36;;;;;;;11.03;9.63;;;12.50;42.20;;;;;;4991411;28;20287;-89
2021/03/01 11:14:02;;;;;;;10.07;8.97;;;12.60;42.00;;;;;;5000613;28;20182;-88
2021/03/01 11:16:28;;;;;;;10.30;9.30;;;12.70;41.70;;;;;;5001132;28;20190;-88
2021/03/01 11:18:54;;;;;;;16.93;10.70;;;12.80;41.20;;;;;;4998994;28;20221;-87
2021/03/01 11:21:19;;;;;;;24.80;11.93;;;13.00;40.40;;;;;;4998527;28;20186;-87
2021/03/01 11:23:45;;;;;;;10.27;9.27;;;13.10;39.80;;;;;;5000184;28;20305;-89
2021/03/01 11:26:14;;;;;;;10.60;9.27;;;13.10;39.50;;;;;;4997731;28;20187;-88
2021/03/01 11:28:39;;;;;;;11.17;9.77;;;13.20;39.30;;;;;;4994751;28;20215;-89
2021/03/01 11:31:05;;;;;;;10.67;9.57;;;13.40;39.20;;;;;;4996552;28;20228;-89
2021/03/01 11:33:31;;;;;;;10.43;9.33;;;13.50;39.00;;;;;;4997815;28;20203;-87
2021/03/01 11:35:57;;;;;;;10.73;9.60;;;13.30;39.50;;;;;;4998306;28;20197;-88
2021/03/01 11:38:25;;;;;;;10.10;8.97;;;13.40;39.50;;;;;;4997544;28;20194;-88
2021/03/01 11:40:52;;;;;;;10.10;9.10;;;13.70;39.10;;;;;;4998995;28;20236;-88
2021/03/01 11:43:18;;;;;;;10.90;8.97;;;13.80;38.70;;;;;;4997836;28;20200;-88
2021/03/01 11:45:44;;;;;;;9.77;8.77;;;14.00;38.30;;;;;;4994663;28;20713;-88
2021/03/01 11:48:13;;;;;;;11.63;9.67;;;14.30;37.60;;;;;;4999867;28;20181;-88
2021/03/01 11:50:43;;;;;;;10.40;9.40;;;14.30;37.10;;;;;;5000756;28;20299;-88
2021/03/01 11:53:09;;;;;;;11.00;9.90;;;14.20;37.90;;;;;;5002189;28;20193;-87
2021/03/01 11:55:35;;;;;;;11.23;9.60;;;14.50;36.90;;;;;;4998651;28;20204;-87
2021/03/01 11:58:01;;;;;;;10.57;9.03;;;14.40;36.60;;;;;;5000057;28;20624;-87
2021/03/01 12:00:27;;;;;;;11.37;9.40;;;14.60;36.50;;;;;;5001026;28;20847;-88
2021/03/01 12:02:53;;;;;;;10.60;9.17;;;14.60;35.60;;;;;;5000510;28;20287;-87
2021/03/01 12:05:19;;;;;;;13.63;9.17;;;14.90;35.20;;;;;;5001091;28;20192;-88
2021/03/01 12:07:45;;;;;;;9.90;8.93;;;14.90;35.50;;;;;;5000095;28;20207;-88
2021/03/01 12:10:12;;;;;;;8.93;8.13;;;15.10;35.00;;;;;;5004181;28;20213;-89
2021/03/01 12:12:38;;;;;;;11.37;9.10;;;15.20;35.10;;;;;;5005043;28;20209;-88
2021/03/01 12:15:05;;;;;;;11.00;8.57;;;15.30;34.90;;;;;;5004308;28;20220;-88
2021/03/01 12:17:31;;;;;;;10.10;9.13;;;15.50;34.10;;;;;;5001727;28;20688;-88
2021/03/01 12:19:57;;;;;;;9.33;8.40;;;15.90;33.50;;;;;;5002561;28;20220;-89
2021/03/01 12:22:22;;;;;;;9.07;8.17;;;16.30;32.70;;;;;;5005030;28;20211;-88
2021/03/01 12:24:48;;;;;;;13.03;8.63;;;16.30;33.00;;;;;;5002382;28;20207;-87
2021/03/01 12:27:14;;;;;;;8.47;7.60;;;16.50;32.30;;;;;;5005035;28;20198;-88
2021/03/01 12:29:40;;;;;;;8.77;7.97;;;16.60;31.20;;;;;;4999161;28;20623;-87
2021/03/01 12:32:06;;;;;;;9.23;7.47;;;16.80;31.20;;;;;;5003983;28;20269;-89
2021/03/01 12:34:34;;;;;;;8.00;7.20;;;17.10;30.00;;;;;;5002874;28;20193;-88
2021/03/01 12:37:00;;;;;;;8.50;7.70;;;17.20;29.90;;;;;;5005195;28;20182;-88
2021/03/01 12:39:26;;;;;;;8.33;7.53;;;17.50;29.30;;;;;;5007348;28;20304;-88
2021/03/01 12:41:52;;;;;;;15.87;10.50;;;17.30;28.90;;;;;;5009660;28;20269;-87
2021/03/01 12:44:18;;;;;;;13.30;12.20;;;17.10;29.20;;;;;;5003806;28;20221;-88
2021/03/01 12:46:44;;;;;;;14.80;13.20;;;17.30;29.20;;;;;;5004466;28;20197;-88